Currituck — AEFR — position and weather

sailwx.info

Track history (hours):
 
Tides and Currents Weather Stations Pressure Air Temp Water Temp Dewpoint Dewpoint Depression Visibility Wind Speed Wind Dir Waves Ship Positions

Currituck

Last reported at 2017-Sep-18 10:37 UTC. Time now 2017-Sep-21 15:56 UTC.
Position N 38°57' W 074°52'.

Length 45 m; draft 2 m.

Type: Dredging. MMSI: 369970446.

Date/timePositionNaut miles runAvg speedWind from/ knotsBaromVisibWave heightAir tempDewpointWater temp
2017-Sep-18 10:37N 38°57' W 074°52'0 3.7
2017-Sep-18 10:29N 38°57' W 074°53'0 0.1
2017-Sep-18 06:59N 38°57' W 074°53'0 0.0
2017-Sep-17 05:36N 38°57' W 074°53'0 0.0
2017-Sep-17 05:28N 38°57' W 074°53'0 0.0
2017-Sep-17 05:00N 38°57' W 074°53'0 0.0
2017-Sep-17 04:30N 38°57' W 074°53'0 0.0
2017-Sep-17 03:50N 38°57' W 074°53'0 0.0
2017-Sep-17 03:30N 38°57' W 074°53'0 0.0
2017-Sep-17 03:00N 38°57' W 074°53'0 0.0
2017-Sep-17 02:14N 38°57' W 074°53'0 0.0
2017-Sep-17 02:00N 38°57' W 074°53'0 0.0
2017-Sep-17 01:26N 38°57' W 074°53'0 0.0
2017-Sep-17 00:47N 38°57' W 074°53'0 0.0
2017-Sep-17 00:24N 38°57' W 074°53'0 0.0
2017-Sep-17 00:00N 38°57' W 074°53'0 0.0
2017-Sep-16 23:28N 38°57' W 074°53'0 0.0
2017-Sep-16 13:36N 38°57' W 074°53'0 0.0
2017-Sep-16 13:29N 38°57' W 074°53'0 0.0
2017-Sep-16 12:57N 38°57' W 074°53'0 0.0
2017-Sep-16 11:58N 38°57' W 074°53'0 0.0
2017-Sep-16 10:48N 38°57' W 074°53'0 0.0
2017-Sep-16 10:30N 38°57' W 074°53'0 0.0
2017-Sep-16 10:00N 38°57' W 074°53'0 0.0
2017-Sep-16 09:28N 38°57' W 074°53'0 0.0
2017-Sep-16 08:55N 38°57' W 074°53'0 0.0
2017-Sep-16 08:28N 38°57' W 074°53'0 0.0
2017-Sep-16 08:00N 38°57' W 074°53'0 0.0
2017-Sep-16 07:24N 38°57' W 074°53'0 0.0
2017-Sep-16 07:00N 38°57' W 074°53'0 0.0
2017-Sep-16 06:30N 38°57' W 074°53'0 0.0
2017-Sep-16 06:00N 38°57' W 074°53'0 0.0
2017-Sep-16 05:16N 38°57' W 074°53'0 0.0
2017-Sep-16 03:55N 38°57' W 074°53'0 0.0
2017-Sep-16 03:07N 38°57' W 074°53'0 0.0
2017-Sep-16 00:51N 38°57' W 074°53'0 0.0
2017-Sep-15 10:53N 38°57' W 074°53'0 0.0
2017-Sep-15 07:36N 38°57' W 074°53'53 2.7
2017-Sep-14 11:55N 39°37' W 074°10'3 7.7
2017-Sep-14 11:28N 39°40' W 074°08'4 7.6
2017-Sep-14 11:00N 39°44' W 074°06'2 4.2
2017-Sep-14 10:29N 39°46' W 074°06'1 0.7
2017-Sep-14 09:23N 39°45' W 074°07'0 0.0
2017-Sep-14 09:00N 39°45' W 074°07'0 0.0
2017-Sep-14 08:30N 39°45' W 074°07'0 0.0
2017-Sep-14 08:00N 39°45' W 074°07'0 0.0
2017-Sep-14 07:30N 39°45' W 074°07'0 0.0
2017-Sep-14 06:59N 39°45' W 074°07'0 0.0
2017-Sep-14 06:23N 39°45' W 074°07'0 0.0
2017-Sep-14 05:58N 39°45' W 074°07'0 0.0
2017-Sep-14 05:28N 39°45' W 074°07'0 0.0
2017-Sep-14 04:59N 39°45' W 074°07'0 0.0
2017-Sep-14 04:25N 39°45' W 074°07'0 0.0
2017-Sep-14 03:59N 39°45' W 074°07'0 0.0
2017-Sep-14 03:21N 39°45' W 074°07'0 0.0
2017-Sep-14 02:59N 39°45' W 074°07'0 0.0
2017-Sep-14 02:17N 39°45' W 074°07'0 0.0
2017-Sep-14 01:58N 39°45' W 074°07'0 0.0
2017-Sep-13 21:13N 39°45' W 074°07'1 4.6
2017-Sep-13 20:59N 39°46' W 074°06'1 2.6
2017-Sep-13 20:30N 39°45' W 074°05'1 2.2
2017-Sep-13 19:59N 39°46' W 074°06'1 2.2
2017-Sep-13 19:30N 39°45' W 074°05'1 1.6
2017-Sep-13 18:52N 39°46' W 074°06'0 0.3
2017-Sep-13 18:29N 39°46' W 074°06'1 2.7
2017-Sep-13 18:00N 39°45' W 074°06'1 2.5
2017-Sep-13 17:29N 39°46' W 074°06'0 0.7
2017-Sep-13 16:57N 39°46' W 074°06'1 2.2
2017-Sep-13 16:30N 39°45' W 074°07'0 0.0
2017-Sep-13 15:51N 39°45' W 074°07'0 0.0
2017-Sep-13 13:16N 39°45' W 074°07'0 0.0
2017-Sep-13 12:58N 39°45' W 074°07'0 0.0
2017-Sep-13 12:30N 39°45' W 074°07'0 0.0
2017-Sep-13 11:59N 39°45' W 074°07'0 0.0
2017-Sep-13 10:02N 39°45' W 074°07'0 0.0
2017-Sep-13 10:00N 39°45' W 074°07'0 0.0
2017-Sep-13 09:29N 39°45' W 074°07'0 0.0
2017-Sep-13 09:00N 39°45' W 074°07'0 0.0
2017-Sep-13 08:30N 39°45' W 074°07'0 0.0
2017-Sep-13 08:00N 39°45' W 074°07'0 0.0
2017-Sep-13 07:30N 39°45' W 074°07'0 0.0
2017-Sep-13 07:00N 39°45' W 074°07'0 0.0
2017-Sep-13 06:30N 39°45' W 074°07'0 0.0
2017-Sep-13 06:00N 39°45' W 074°07'0 0.0
2017-Sep-13 05:30N 39°45' W 074°07'0 0.0
2017-Sep-13 05:00N 39°45' W 074°07'0 0.0
2017-Sep-13 04:30N 39°45' W 074°07'0 0.0
2017-Sep-13 04:00N 39°45' W 074°07'0 0.0
2017-Sep-13 03:30N 39°45' W 074°07'0 0.0
2017-Sep-13 02:59N 39°45' W 074°07'0 0.0
2017-Sep-13 02:29N 39°45' W 074°07'0 0.0
2017-Sep-13 00:38N 39°45' W 074°07'0 0.0
2017-Sep-13 00:18N 39°45' W 074°07'0 0.0
2017-Sep-12 23:59N 39°45' W 074°07'0 0.0
2017-Sep-12 21:23N 39°45' W 074°07'1 2.1
2017-Sep-12 20:49N 39°45' W 074°05'1 1.7
2017-Sep-12 20:29N 39°46' W 074°06'0 0.7
2017-Sep-12 19:50N 39°45' W 074°05'1 2.7
2017-Sep-12 19:29N 39°45' W 074°06'1 2.4
2017-Sep-12 19:00N 39°46' W 074°06'1 2.4
2017-Sep-12 18:30N 39°45' W 074°06'1 2.0
2017-Sep-12 17:55N 39°46' W 074°06'1 2.6
2017-Sep-12 17:28N 39°45' W 074°06'1 1.9
2017-Sep-12 16:54N 39°46' W 074°06'1 3.0
2017-Sep-12 16:30N 39°46' W 074°07'2 1.5
2017-Sep-12 15:10N 39°48' W 074°09'0 1.2
2017-Sep-12 14:53N 39°48' W 074°09'0 0.1
2017-Sep-12 14:30N 39°48' W 074°09'2 4.4
2017-Sep-12 14:00N 39°46' W 074°07'2 3.3
2017-Sep-12 13:30N 39°45' W 074°06'1 2.1
2017-Sep-12 12:59N 39°46' W 074°06'1 2.1
2017-Sep-12 12:30N 39°45' W 074°07'0 0.1
2017-Sep-12 11:55N 39°45' W 074°07'0 0.0
2017-Sep-12 11:29N 39°45' W 074°07'0 0.0
2017-Sep-12 11:00N 39°45' W 074°07'0 0.0
2017-Sep-12 10:30N 39°45' W 074°07'0 0.0
2017-Sep-12 10:00N 39°45' W 074°07'0 0.0
2017-Sep-12 09:30N 39°45' W 074°07'0 0.0
2017-Sep-12 09:00N 39°45' W 074°07'0 0.0
2017-Sep-12 08:30N 39°45' W 074°07'0 0.0
2017-Sep-12 08:00N 39°45' W 074°07'0 0.0
2017-Sep-12 07:29N 39°45' W 074°07'0 0.0
2017-Sep-12 06:58N 39°45' W 074°07'0 0.0
2017-Sep-12 06:30N 39°45' W 074°07'0 0.0
2017-Sep-12 06:00N 39°45' W 074°07'0 0.0
2017-Sep-12 05:29N 39°45' W 074°07'0 0.0
2017-Sep-12 04:58N 39°45' W 074°07'0 0.0
2017-Sep-12 04:30N 39°45' W 074°07'0 0.0
2017-Sep-12 04:00N 39°45' W 074°07'0 0.0
2017-Sep-12 03:29N 39°45' W 074°07'0 0.0
2017-Sep-12 03:00N 39°45' W 074°07'0 0.0
2017-Sep-12 02:29N 39°45' W 074°07'0 0.0
2017-Sep-12 02:00N 39°45' W 074°07'0 0.0
2017-Sep-12 01:28N 39°45' W 074°07'0 0.0
2017-Sep-12 01:01N 39°45' W 074°07'0 0.0
2017-Sep-12 00:29N 39°45' W 074°07'0 0.0
2017-Sep-11 23:58N 39°45' W 074°07'0 0.0
2017-Sep-11 23:28N 39°45' W 074°07'0 0.0
2017-Sep-11 23:00N 39°45' W 074°07'0 0.0
2017-Sep-11 22:28N 39°45' W 074°07'0 0.0
2017-Sep-11 22:00N 39°45' W 074°07'0 0.0
2017-Sep-11 21:30N 39°45' W 074°07'1 2.0
2017-Sep-11 20:57N 39°46' W 074°06'0 0.3
2017-Sep-11 20:20N 39°46' W 074°06'0 0.4
2017-Sep-11 20:00N 39°46' W 074°06'0 0.9
2017-Sep-11 19:30N 39°45' W 074°05'0 0.8
2017-Sep-11 18:56N 39°46' W 074°06'1 1.4
2017-Sep-11 18:27N 39°46' W 074°06'2 0.8
2017-Sep-11 15:46N 39°47' W 074°08'1 5.1
2017-Sep-11 15:30N 39°46' W 074°07'1 1.8
2017-Sep-11 14:55N 39°46' W 074°06'1 3.3
2017-Sep-11 14:30N 39°47' W 074°07'0 0.0
2017-Sep-11 12:00N 39°47' W 074°07'2 3.9
2017-Sep-11 11:31N 39°46' W 074°06'0 0.7
2017-Sep-11 10:59N 39°46' W 074°06'1 2.2
2017-Sep-11 10:31N 39°45' W 074°07'0 0.0
2017-Sep-11 09:59N 39°45' W 074°07'0 0.0
2017-Sep-11 09:31N 39°45' W 074°07'0 0.0
2017-Sep-11 08:59N 39°45' W 074°07'0 0.0
2017-Sep-11 08:29N 39°45' W 074°07'0 0.0
2017-Sep-11 07:59N 39°45' W 074°07'0 0.0
2017-Sep-11 07:31N 39°45' W 074°07'0 0.0
2017-Sep-11 06:57N 39°45' W 074°07'0 0.0
2017-Sep-11 06:29N 39°45' W 074°07'0 0.0
2017-Sep-11 06:00N 39°45' W 074°07'0 0.0
2017-Sep-11 05:30N 39°45' W 074°07'0 0.0
2017-Sep-11 05:00N 39°45' W 074°07'0 0.0
2017-Sep-11 04:30N 39°45' W 074°07'0 0.0
2017-Sep-11 04:00N 39°45' W 074°07'0 0.0
2017-Sep-11 03:29N 39°45' W 074°07'0 0.0
2017-Sep-11 03:01N 39°45' W 074°07'0 0.0
2017-Sep-11 02:30N 39°45' W 074°07'0 0.0
2017-Sep-11 02:00N 39°45' W 074°07'0 0.0
2017-Sep-11 01:29N 39°45' W 074°07'0 0.0
2017-Sep-11 00:58N 39°45' W 074°07'0 0.0
2017-Sep-11 00:30N 39°45' W 074°07'0 0.0
2017-Sep-10 23:56N 39°45' W 074°07'0 0.0
2017-Sep-10 23:28N 39°45' W 074°07'0 0.0
2017-Sep-10 23:01N 39°45' W 074°07'0 0.0
2017-Sep-10 22:29N 39°45' W 074°07'0 0.0
2017-Sep-10 22:00N 39°45' W 074°07'0 0.0
2017-Sep-10 21:30N 39°45' W 074°07'0 0.0
2017-Sep-10 20:59N 39°45' W 074°07'0 0.0
2017-Sep-10 20:27N 39°45' W 074°07'0 0.0
2017-Sep-10 20:00N 39°45' W 074°07'0 0.1
2017-Sep-10 19:30N 39°45' W 074°07'0 0.0
2017-Sep-10 19:00N 39°45' W 074°07'0 0.0
2017-Sep-10 18:29N 39°45' W 074°07'1 2.1
2017-Sep-10 18:00N 39°46' W 074°06'0 0.6
2017-Sep-10 17:29N 39°46' W 074°07'1 0.5
2017-Sep-10 15:20N 39°47' W 074°07'2 5.5
2017-Sep-10 14:57N 39°45' W 074°05'2 0.8
2017-Sep-10 12:18N 39°47' W 074°07'2 6.2
2017-Sep-10 11:58N 39°45' W 074°05'1 1.7
2017-Sep-10 11:31N 39°45' W 074°05'1 2.2
2017-Sep-10 11:00N 39°46' W 074°06'1 2.1
2017-Sep-10 10:30N 39°45' W 074°07'0 0.0
2017-Sep-10 09:57N 39°45' W 074°07'0 0.0
2017-Sep-10 09:28N 39°45' W 074°07'0 0.0
2017-Sep-10 09:00N 39°45' W 074°07'0 0.0
2017-Sep-10 08:30N 39°45' W 074°07'0 0.0
2017-Sep-10 08:00N 39°45' W 074°07'0 0.0
2017-Sep-10 07:30N 39°45' W 074°07'0 0.0
2017-Sep-10 06:58N 39°45' W 074°07'0 0.0
2017-Sep-10 06:30N 39°45' W 074°07'0 0.0
2017-Sep-10 06:00N 39°45' W 074°07'0 0.0
2017-Sep-10 05:30N 39°45' W 074°07'0 0.0
2017-Sep-10 05:00N 39°45' W 074°07'0 0.0
2017-Sep-10 04:28N 39°45' W 074°07'0 0.0
2017-Sep-10 03:58N 39°45' W 074°07'0 0.0
2017-Sep-10 03:30N 39°45' W 074°07'0 0.0
2017-Sep-10 03:00N 39°45' W 074°07'0 0.0
2017-Sep-10 02:30N 39°45' W 074°07'0 0.0
2017-Sep-10 02:00N 39°45' W 074°07'0 0.0
2017-Sep-10 01:30N 39°45' W 074°07'0 0.0
2017-Sep-10 00:56N 39°45' W 074°07'0 0.0
2017-Sep-10 00:29N 39°45' W 074°07'0 0.0
2017-Sep-09 23:58N 39°45' W 074°07'0 0.0
2017-Sep-09 23:21N 39°45' W 074°07'0 0.0
2017-Sep-09 23:00N 39°45' W 074°07'0 0.0
2017-Sep-09 22:30N 39°45' W 074°07'0 0.0
2017-Sep-09 21:58N 39°45' W 074°07'0 0.0
2017-Sep-09 21:27N 39°45' W 074°07'1 2.4
2017-Sep-09 20:59N 39°46' W 074°05'0 0.4
2017-Sep-09 20:27N 39°45' W 074°05'0 1.0
2017-Sep-09 20:00N 39°46' W 074°06'0 0.2
2017-Sep-09 19:28N 39°46' W 074°06'0 0.5
2017-Sep-09 19:00N 39°46' W 074°06'0 0.1
2017-Sep-09 18:30N 39°46' W 074°06'0 0.4
2017-Sep-09 18:00N 39°46' W 074°06'0 0.1
2017-Sep-09 17:28N 39°46' W 074°06'0 0.1
2017-Sep-09 16:57N 39°46' W 074°06'0 0.1
2017-Sep-09 16:21N 39°46' W 074°06'1 2.1
2017-Sep-09 16:00N 39°45' W 074°05'0 0.8
2017-Sep-09 15:28N 39°46' W 074°06'0 0.6
2017-Sep-09 15:00N 39°46' W 074°06'0 0.1
2017-Sep-09 14:30N 39°46' W 074°06'0 0.2
2017-Sep-09 13:59N 39°46' W 074°06'1 1.1
2017-Sep-09 13:30N 39°45' W 074°05'0 0.1
2017-Sep-09 13:00N 39°45' W 074°05'0 0.2
2017-Sep-09 12:28N 39°45' W 074°05'1 1.5
2017-Sep-09 12:00N 39°46' W 074°06'1 2.7
2017-Sep-09 11:30N 39°45' W 074°05'2 2.7
2017-Sep-09 10:56N 39°46' W 074°06'1 2.5
2017-Sep-09 10:30N 39°45' W 074°07'0 0.0
2017-Sep-09 10:00N 39°45' W 074°07'0 0.0
2017-Sep-09 09:30N 39°45' W 074°07'0 0.0
2017-Sep-09 09:00N 39°45' W 074°07'0 0.0
2017-Sep-09 08:29N 39°45' W 074°07'0 0.0
2017-Sep-09 08:00N 39°45' W 074°07'0 0.0
2017-Sep-09 07:30N 39°45' W 074°07'0 0.0
2017-Sep-09 07:00N 39°45' W 074°07'0 0.0
2017-Sep-09 06:30N 39°45' W 074°07'0 0.0
2017-Sep-09 06:00N 39°45' W 074°07'0 0.0
2017-Sep-09 05:30N 39°45' W 074°07'0 0.0
2017-Sep-09 05:00N 39°45' W 074°07'0 0.0
2017-Sep-09 04:28N 39°45' W 074°07'0 0.0
2017-Sep-09 03:59N 39°45' W 074°07'0 0.0
2017-Sep-09 03:29N 39°45' W 074°07'0 0.0
2017-Sep-09 03:00N 39°45' W 074°07'0 0.0
2017-Sep-09 02:25N 39°45' W 074°07'0 0.0
2017-Sep-09 02:00N 39°45' W 074°07'0 0.0
2017-Sep-09 01:29N 39°45' W 074°07'0 0.0
2017-Sep-09 01:00N 39°45' W 074°07'0 0.0
2017-Sep-09 00:30N 39°45' W 074°07'0 0.0
2017-Sep-08 23:57N 39°45' W 074°07'0 0.0
2017-Sep-08 23:28N 39°45' W 074°07'0 0.0
2017-Sep-08 22:59N 39°45' W 074°07'0 0.0
2017-Sep-08 22:28N 39°45' W 074°07'0 0.0
2017-Sep-08 21:58N 39°45' W 074°07'0 0.0
2017-Sep-08 21:29N 39°45' W 074°07'0 0.0
2017-Sep-08 20:58N 39°45' W 074°07'1 2.5
2017-Sep-08 20:30N 39°46' W 074°05'0 0.3
2017-Sep-08 19:56N 39°46' W 074°06'1 2.7
2017-Sep-08 19:30N 39°45' W 074°06'1 2.4
2017-Sep-08 18:58N 39°46' W 074°06'1 2.7
2017-Sep-08 18:30N 39°45' W 074°05'1 2.2
2017-Sep-08 17:56N 39°46' W 074°06'0 0.4
2017-Sep-08 17:28N 39°46' W 074°06'1 2.0
2017-Sep-08 16:59N 39°45' W 074°05'1 2.3
2017-Sep-08 16:29N 39°46' W 074°06'1 2.5
2017-Sep-08 16:00N 39°45' W 074°06'1 1.7
2017-Sep-08 15:18N 39°46' W 074°06'1 3.9
2017-Sep-08 15:00N 39°45' W 074°05'1 1.7
2017-Sep-08 14:20N 39°46' W 074°06'0 0.2
2017-Sep-08 13:59N 39°46' W 074°06'1 2.2
2017-Sep-08 13:29N 39°45' W 074°06'1 2.6
2017-Sep-08 12:59N 39°46' W 074°06'3 2.0
2017-Sep-08 11:28N 39°47' W 074°10'2 3.7
2017-Sep-08 10:59N 39°47' W 074°07'  
Track history (hours):
 
Tides and Currents Weather Stations Pressure Air Temp Water Temp Dewpoint Dewpoint Depression Visibility Wind Speed Wind Dir Waves Ship Positions

Currituck

Last reported at 2017-Sep-18 10:37 UTC. Time now 2017-Sep-21 15:56 UTC.
Position N 38°57' W 074°52'.

Length 45 m; draft 2 m.

Type: Dredging. MMSI: 369970446.

Date/timePositionNaut miles runAvg speedWind from/ knotsBaromVisibWave heightAir tempDewpointWater temp
2017-Sep-18 10:37N 38°57' W 074°52'0 3.7
2017-Sep-18 10:29N 38°57' W 074°53'0 0.1
2017-Sep-18 06:59N 38°57' W 074°53'0 0.0
2017-Sep-17 05:36N 38°57' W 074°53'0 0.0
2017-Sep-17 05:28N 38°57' W 074°53'0 0.0
2017-Sep-17 05:00N 38°57' W 074°53'0 0.0
2017-Sep-17 04:30N 38°57' W 074°53'0 0.0
2017-Sep-17 03:50N 38°57' W 074°53'0 0.0
2017-Sep-17 03:30N 38°57' W 074°53'0 0.0
2017-Sep-17 03:00N 38°57' W 074°53'0 0.0
2017-Sep-17 02:14N 38°57' W 074°53'0 0.0
2017-Sep-17 02:00N 38°57' W 074°53'0 0.0
2017-Sep-17 01:26N 38°57' W 074°53'0 0.0
2017-Sep-17 00:47N 38°57' W 074°53'0 0.0
2017-Sep-17 00:24N 38°57' W 074°53'0 0.0
2017-Sep-17 00:00N 38°57' W 074°53'0 0.0
2017-Sep-16 23:28N 38°57' W 074°53'0 0.0
2017-Sep-16 13:36N 38°57' W 074°53'0 0.0
2017-Sep-16 13:29N 38°57' W 074°53'0 0.0
2017-Sep-16 12:57N 38°57' W 074°53'0 0.0
2017-Sep-16 11:58N 38°57' W 074°53'0 0.0
2017-Sep-16 10:48N 38°57' W 074°53'0 0.0
2017-Sep-16 10:30N 38°57' W 074°53'0 0.0
2017-Sep-16 10:00N 38°57' W 074°53'0 0.0
2017-Sep-16 09:28N 38°57' W 074°53'0 0.0
2017-Sep-16 08:55N 38°57' W 074°53'0 0.0
2017-Sep-16 08:28N 38°57' W 074°53'0 0.0
2017-Sep-16 08:00N 38°57' W 074°53'0 0.0
2017-Sep-16 07:24N 38°57' W 074°53'0 0.0
2017-Sep-16 07:00N 38°57' W 074°53'0 0.0
2017-Sep-16 06:30N 38°57' W 074°53'0 0.0
2017-Sep-16 06:00N 38°57' W 074°53'0 0.0
2017-Sep-16 05:16N 38°57' W 074°53'0 0.0
2017-Sep-16 03:55N 38°57' W 074°53'0 0.0
2017-Sep-16 03:07N 38°57' W 074°53'0 0.0
2017-Sep-16 00:51N 38°57' W 074°53'0 0.0
2017-Sep-15 10:53N 38°57' W 074°53'0 0.0
2017-Sep-15 07:36N 38°57' W 074°53'53 2.7
2017-Sep-14 11:55N 39°37' W 074°10'3 7.7
2017-Sep-14 11:28N 39°40' W 074°08'4 7.6
2017-Sep-14 11:00N 39°44' W 074°06'2 4.2
2017-Sep-14 10:29N 39°46' W 074°06'1 0.7
2017-Sep-14 09:23N 39°45' W 074°07'0 0.0
2017-Sep-14 09:00N 39°45' W 074°07'0 0.0
2017-Sep-14 08:30N 39°45' W 074°07'0 0.0
2017-Sep-14 08:00N 39°45' W 074°07'0 0.0
2017-Sep-14 07:30N 39°45' W 074°07'0 0.0
2017-Sep-14 06:59N 39°45' W 074°07'0 0.0
2017-Sep-14 06:23N 39°45' W 074°07'0 0.0
2017-Sep-14 05:58N 39°45' W 074°07'0 0.0
2017-Sep-14 05:28N 39°45' W 074°07'0 0.0
2017-Sep-14 04:59N 39°45' W 074°07'0 0.0
2017-Sep-14 04:25N 39°45' W 074°07'0 0.0
2017-Sep-14 03:59N 39°45' W 074°07'0 0.0
2017-Sep-14 03:21N 39°45' W 074°07'0 0.0
2017-Sep-14 02:59N 39°45' W 074°07'0 0.0
2017-Sep-14 02:17N 39°45' W 074°07'0 0.0
2017-Sep-14 01:58N 39°45' W 074°07'0 0.0
2017-Sep-13 21:13N 39°45' W 074°07'1 4.6
2017-Sep-13 20:59N 39°46' W 074°06'1 2.6
2017-Sep-13 20:30N 39°45' W 074°05'1 2.2
2017-Sep-13 19:59N 39°46' W 074°06'1 2.2
2017-Sep-13 19:30N 39°45' W 074°05'1 1.6
2017-Sep-13 18:52N 39°46' W 074°06'0 0.3
2017-Sep-13 18:29N 39°46' W 074°06'1 2.7
2017-Sep-13 18:00N 39°45' W 074°06'1 2.5
2017-Sep-13 17:29N 39°46' W 074°06'0 0.7
2017-Sep-13 16:57N 39°46' W 074°06'1 2.2
2017-Sep-13 16:30N 39°45' W 074°07'0 0.0
2017-Sep-13 15:51N 39°45' W 074°07'0 0.0
2017-Sep-13 13:16N 39°45' W 074°07'0 0.0
2017-Sep-13 12:58N 39°45' W 074°07'0 0.0
2017-Sep-13 12:30N 39°45' W 074°07'0 0.0
2017-Sep-13 11:59N 39°45' W 074°07'0 0.0
2017-Sep-13 10:02N 39°45' W 074°07'0 0.0
2017-Sep-13 10:00N 39°45' W 074°07'0 0.0
2017-Sep-13 09:29N 39°45' W 074°07'0 0.0
2017-Sep-13 09:00N 39°45' W 074°07'0 0.0
2017-Sep-13 08:30N 39°45' W 074°07'0 0.0
2017-Sep-13 08:00N 39°45' W 074°07'0 0.0
2017-Sep-13 07:30N 39°45' W 074°07'0 0.0
2017-Sep-13 07:00N 39°45' W 074°07'0 0.0
2017-Sep-13 06:30N 39°45' W 074°07'0 0.0
2017-Sep-13 06:00N 39°45' W 074°07'0 0.0
2017-Sep-13 05:30N 39°45' W 074°07'0 0.0
2017-Sep-13 05:00N 39°45' W 074°07'0 0.0
2017-Sep-13 04:30N 39°45' W 074°07'0 0.0
2017-Sep-13 04:00N 39°45' W 074°07'0 0.0
2017-Sep-13 03:30N 39°45' W 074°07'0 0.0
2017-Sep-13 02:59N 39°45' W 074°07'0 0.0
2017-Sep-13 02:29N 39°45' W 074°07'0 0.0
2017-Sep-13 00:38N 39°45' W 074°07'0 0.0
2017-Sep-13 00:18N 39°45' W 074°07'0 0.0
2017-Sep-12 23:59N 39°45' W 074°07'0 0.0
2017-Sep-12 21:23N 39°45' W 074°07'1 2.1
2017-Sep-12 20:49N 39°45' W 074°05'1 1.7
2017-Sep-12 20:29N 39°46' W 074°06'0 0.7
2017-Sep-12 19:50N 39°45' W 074°05'1 2.7
2017-Sep-12 19:29N 39°45' W 074°06'1 2.4
2017-Sep-12 19:00N 39°46' W 074°06'1 2.4
2017-Sep-12 18:30N 39°45' W 074°06'1 2.0
2017-Sep-12 17:55N 39°46' W 074°06'1 2.6
2017-Sep-12 17:28N 39°45' W 074°06'1 1.9
2017-Sep-12 16:54N 39°46' W 074°06'1 3.0
2017-Sep-12 16:30N 39°46' W 074°07'2 1.5
2017-Sep-12 15:10N 39°48' W 074°09'0 1.2
2017-Sep-12 14:53N 39°48' W 074°09'0 0.1
2017-Sep-12 14:30N 39°48' W 074°09'2 4.4
2017-Sep-12 14:00N 39°46' W 074°07'2 3.3
2017-Sep-12 13:30N 39°45' W 074°06'1 2.1
2017-Sep-12 12:59N 39°46' W 074°06'1 2.1
2017-Sep-12 12:30N 39°45' W 074°07'0 0.1
2017-Sep-12 11:55N 39°45' W 074°07'0 0.0
2017-Sep-12 11:29N 39°45' W 074°07'0 0.0
2017-Sep-12 11:00N 39°45' W 074°07'0 0.0
2017-Sep-12 10:30N 39°45' W 074°07'0 0.0
2017-Sep-12 10:00N 39°45' W 074°07'0 0.0
2017-Sep-12 09:30N 39°45' W 074°07'0 0.0
2017-Sep-12 09:00N 39°45' W 074°07'0 0.0
2017-Sep-12 08:30N 39°45' W 074°07'0 0.0
2017-Sep-12 08:00N 39°45' W 074°07'0 0.0
2017-Sep-12 07:29N 39°45' W 074°07'0 0.0
2017-Sep-12 06:58N 39°45' W 074°07'0 0.0
2017-Sep-12 06:30N 39°45' W 074°07'0 0.0
2017-Sep-12 06:00N 39°45' W 074°07'0 0.0
2017-Sep-12 05:29N 39°45' W 074°07'0 0.0
2017-Sep-12 04:58N 39°45' W 074°07'0 0.0
2017-Sep-12 04:30N 39°45' W 074°07'0 0.0
2017-Sep-12 04:00N 39°45' W 074°07'0 0.0
2017-Sep-12 03:29N 39°45' W 074°07'0 0.0
2017-Sep-12 03:00N 39°45' W 074°07'0 0.0
2017-Sep-12 02:29N 39°45' W 074°07'0 0.0
2017-Sep-12 02:00N 39°45' W 074°07'0 0.0
2017-Sep-12 01:28N 39°45' W 074°07'0 0.0
2017-Sep-12 01:01N 39°45' W 074°07'0 0.0
2017-Sep-12 00:29N 39°45' W 074°07'0 0.0
2017-Sep-11 23:58N 39°45' W 074°07'0 0.0
2017-Sep-11 23:28N 39°45' W 074°07'0 0.0
2017-Sep-11 23:00N 39°45' W 074°07'0 0.0
2017-Sep-11 22:28N 39°45' W 074°07'0 0.0
2017-Sep-11 22:00N 39°45' W 074°07'0 0.0
2017-Sep-11 21:30N 39°45' W 074°07'1 2.0
2017-Sep-11 20:57N 39°46' W 074°06'0 0.3
2017-Sep-11 20:20N 39°46' W 074°06'0 0.4
2017-Sep-11 20:00N 39°46' W 074°06'0 0.9
2017-Sep-11 19:30N 39°45' W 074°05'0 0.8
2017-Sep-11 18:56N 39°46' W 074°06'1 1.4
2017-Sep-11 18:27N 39°46' W 074°06'2 0.8
2017-Sep-11 15:46N 39°47' W 074°08'1 5.1
2017-Sep-11 15:30N 39°46' W 074°07'1 1.8
2017-Sep-11 14:55N 39°46' W 074°06'1 3.3
2017-Sep-11 14:30N 39°47' W 074°07'0 0.0
2017-Sep-11 12:00N 39°47' W 074°07'2 3.9
2017-Sep-11 11:31N 39°46' W 074°06'0 0.7
2017-Sep-11 10:59N 39°46' W 074°06'1 2.2
2017-Sep-11 10:31N 39°45' W 074°07'0 0.0
2017-Sep-11 09:59N 39°45' W 074°07'0 0.0
2017-Sep-11 09:31N 39°45' W 074°07'0 0.0
2017-Sep-11 08:59N 39°45' W 074°07'0 0.0
2017-Sep-11 08:29N 39°45' W 074°07'0 0.0
2017-Sep-11 07:59N 39°45' W 074°07'0 0.0
2017-Sep-11 07:31N 39°45' W 074°07'0 0.0
2017-Sep-11 06:57N 39°45' W 074°07'0 0.0
2017-Sep-11 06:29N 39°45' W 074°07'0 0.0
2017-Sep-11 06:00N 39°45' W 074°07'0 0.0
2017-Sep-11 05:30N 39°45' W 074°07'0 0.0
2017-Sep-11 05:00N 39°45' W 074°07'0 0.0
2017-Sep-11 04:30N 39°45' W 074°07'0 0.0
2017-Sep-11 04:00N 39°45' W 074°07'0 0.0
2017-Sep-11 03:29N 39°45' W 074°07'0 0.0
2017-Sep-11 03:01N 39°45' W 074°07'0 0.0
2017-Sep-11 02:30N 39°45' W 074°07'0 0.0
2017-Sep-11 02:00N 39°45' W 074°07'0 0.0
2017-Sep-11 01:29N 39°45' W 074°07'0 0.0
2017-Sep-11 00:58N 39°45' W 074°07'0 0.0
2017-Sep-11 00:30N 39°45' W 074°07'0 0.0
2017-Sep-10 23:56N 39°45' W 074°07'0 0.0
2017-Sep-10 23:28N 39°45' W 074°07'0 0.0
2017-Sep-10 23:01N 39°45' W 074°07'0 0.0
2017-Sep-10 22:29N 39°45' W 074°07'0 0.0
2017-Sep-10 22:00N 39°45' W 074°07'0 0.0
2017-Sep-10 21:30N 39°45' W 074°07'0 0.0
2017-Sep-10 20:59N 39°45' W 074°07'0 0.0
2017-Sep-10 20:27N 39°45' W 074°07'0 0.0
2017-Sep-10 20:00N 39°45' W 074°07'0 0.1
2017-Sep-10 19:30N 39°45' W 074°07'0 0.0
2017-Sep-10 19:00N 39°45' W 074°07'0 0.0
2017-Sep-10 18:29N 39°45' W 074°07'1 2.1
2017-Sep-10 18:00N 39°46' W 074°06'0 0.6
2017-Sep-10 17:29N 39°46' W 074°07'1 0.5
2017-Sep-10 15:20N 39°47' W 074°07'2 5.5
2017-Sep-10 14:57N 39°45' W 074°05'2 0.8
2017-Sep-10 12:18N 39°47' W 074°07'2 6.2
2017-Sep-10 11:58N 39°45' W 074°05'1 1.7
2017-Sep-10 11:31N 39°45' W 074°05'1 2.2
2017-Sep-10 11:00N 39°46' W 074°06'1 2.1
2017-Sep-10 10:30N 39°45' W 074°07'0 0.0
2017-Sep-10 09:57N 39°45' W 074°07'0 0.0
2017-Sep-10 09:28N 39°45' W 074°07'0 0.0
2017-Sep-10 09:00N 39°45' W 074°07'0 0.0
2017-Sep-10 08:30N 39°45' W 074°07'0 0.0
2017-Sep-10 08:00N 39°45' W 074°07'0 0.0
2017-Sep-10 07:30N 39°45' W 074°07'0 0.0
2017-Sep-10 06:58N 39°45' W 074°07'0 0.0
2017-Sep-10 06:30N 39°45' W 074°07'0 0.0
2017-Sep-10 06:00N 39°45' W 074°07'0 0.0
2017-Sep-10 05:30N 39°45' W 074°07'0 0.0
2017-Sep-10 05:00N 39°45' W 074°07'0 0.0
2017-Sep-10 04:28N 39°45' W 074°07'0 0.0
2017-Sep-10 03:58N 39°45' W 074°07'0 0.0
2017-Sep-10 03:30N 39°45' W 074°07'0 0.0
2017-Sep-10 03:00N 39°45' W 074°07'0 0.0
2017-Sep-10 02:30N 39°45' W 074°07'0 0.0
2017-Sep-10 02:00N 39°45' W 074°07'0 0.0
2017-Sep-10 01:30N 39°45' W 074°07'0 0.0
2017-Sep-10 00:56N 39°45' W 074°07'0 0.0
2017-Sep-10 00:29N 39°45' W 074°07'0 0.0
2017-Sep-09 23:58N 39°45' W 074°07'0 0.0
2017-Sep-09 23:21N 39°45' W 074°07'0 0.0
2017-Sep-09 23:00N 39°45' W 074°07'0 0.0
2017-Sep-09 22:30N 39°45' W 074°07'0 0.0
2017-Sep-09 21:58N 39°45' W 074°07'0 0.0
2017-Sep-09 21:27N 39°45' W 074°07'1 2.4
2017-Sep-09 20:59N 39°46' W 074°05'0 0.4
2017-Sep-09 20:27N 39°45' W 074°05'0 1.0
2017-Sep-09 20:00N 39°46' W 074°06'0 0.2
2017-Sep-09 19:28N 39°46' W 074°06'0 0.5
2017-Sep-09 19:00N 39°46' W 074°06'0 0.1
2017-Sep-09 18:30N 39°46' W 074°06'0 0.4
2017-Sep-09 18:00N 39°46' W 074°06'0 0.1
2017-Sep-09 17:28N 39°46' W 074°06'0 0.1
2017-Sep-09 16:57N 39°46' W 074°06'0 0.1
2017-Sep-09 16:21N 39°46' W 074°06'1 2.1
2017-Sep-09 16:00N 39°45' W 074°05'0 0.8
2017-Sep-09 15:28N 39°46' W 074°06'0 0.6
2017-Sep-09 15:00N 39°46' W 074°06'0 0.1
2017-Sep-09 14:30N 39°46' W 074°06'0 0.2
2017-Sep-09 13:59N 39°46' W 074°06'1 1.1
2017-Sep-09 13:30N 39°45' W 074°05'0 0.1
2017-Sep-09 13:00N 39°45' W 074°05'0 0.2
2017-Sep-09 12:28N 39°45' W 074°05'1 1.5
2017-Sep-09 12:00N 39°46' W 074°06'1 2.7
2017-Sep-09 11:30N 39°45' W 074°05'2 2.7
2017-Sep-09 10:56N 39°46' W 074°06'1 2.5
2017-Sep-09 10:30N 39°45' W 074°07'0 0.0
2017-Sep-09 10:00N 39°45' W 074°07'0 0.0
2017-Sep-09 09:30N 39°45' W 074°07'0 0.0
2017-Sep-09 09:00N 39°45' W 074°07'0 0.0
2017-Sep-09 08:29N 39°45' W 074°07'0 0.0
2017-Sep-09 08:00N 39°45' W 074°07'0 0.0
2017-Sep-09 07:30N 39°45' W 074°07'0 0.0
2017-Sep-09 07:00N 39°45' W 074°07'0 0.0
2017-Sep-09 06:30N 39°45' W 074°07'0 0.0
2017-Sep-09 06:00N 39°45' W 074°07'0 0.0
2017-Sep-09 05:30N 39°45' W 074°07'0 0.0
2017-Sep-09 05:00N 39°45' W 074°07'0 0.0
2017-Sep-09 04:28N 39°45' W 074°07'0 0.0
2017-Sep-09 03:59N 39°45' W 074°07'0 0.0
2017-Sep-09 03:29N 39°45' W 074°07'0 0.0
2017-Sep-09 03:00N 39°45' W 074°07'0 0.0
2017-Sep-09 02:25N 39°45' W 074°07'0 0.0
2017-Sep-09 02:00N 39°45' W 074°07'0 0.0
2017-Sep-09 01:29N 39°45' W 074°07'0 0.0
2017-Sep-09 01:00N 39°45' W 074°07'0 0.0
2017-Sep-09 00:30N 39°45' W 074°07'0 0.0
2017-Sep-08 23:57N 39°45' W 074°07'0 0.0
2017-Sep-08 23:28N 39°45' W 074°07'0 0.0
2017-Sep-08 22:59N 39°45' W 074°07'0 0.0
2017-Sep-08 22:28N 39°45' W 074°07'0 0.0
2017-Sep-08 21:58N 39°45' W 074°07'0 0.0
2017-Sep-08 21:29N 39°45' W 074°07'0 0.0
2017-Sep-08 20:58N 39°45' W 074°07'1 2.5
2017-Sep-08 20:30N 39°46' W 074°05'0 0.3
2017-Sep-08 19:56N 39°46' W 074°06'1 2.7
2017-Sep-08 19:30N 39°45' W 074°06'1 2.4
2017-Sep-08 18:58N 39°46' W 074°06'1 2.7
2017-Sep-08 18:30N 39°45' W 074°05'1 2.2
2017-Sep-08 17:56N 39°46' W 074°06'0 0.4
2017-Sep-08 17:28N 39°46' W 074°06'1 2.0
2017-Sep-08 16:59N 39°45' W 074°05'1 2.3
2017-Sep-08 16:29N 39°46' W 074°06'1 2.5
2017-Sep-08 16:00N 39°45' W 074°06'1 1.7
2017-Sep-08 15:18N 39°46' W 074°06'1 3.9
2017-Sep-08 15:00N 39°45' W 074°05'1 1.7
2017-Sep-08 14:20N 39°46' W 074°06'0 0.2
2017-Sep-08 13:59N 39°46' W 074°06'1 2.2
2017-Sep-08 13:29N 39°45' W 074°06'1 2.6
2017-Sep-08 12:59N 39°46' W 074°06'3 2.0
2017-Sep-08 11:28N 39°47' W 074°10'2 3.7
2017-Sep-08 10:59N 39°47' W 074°07'  

Dump ship's entire track history